Time;durP1;ratioP1;P1;durP2;ratioP2;P2;SDS_P1;SDS_P2;PMS_P1;PMS_P2;Temp;Humidity;BMP_temperature;BMP_pressure;BME280_temperature;BME280_humidity;BME280_pressure;Samples;Min_cycle;Max_cycle;Signal;HPM_P1;HPM_P2
2023/03/09 00:02:13;;;;;;;1.60;0.97;;;;;;;;;;5008791;28;20179;-78
2023/03/09 00:04:38;;;;;;;0.80;0.80;;;;;;;;;;5007883;28;20190;-77
2023/03/09 00:07:04;;;;;;;1.07;1.03;;;;;;;;;;5002129;28;20177;-78
2023/03/09 00:09:29;;;;;;;1.30;1.20;;;;;;;;;;5008849;28;20213;-77
2023/03/09 00:11:54;;;;;;;1.50;1.00;;;;;;;;;;5008604;28;20202;-77
2023/03/09 00:14:21;;;;;;;1.50;0.90;;;;;;;;;;5006790;28;20185;-77
2023/03/09 00:16:46;;;;;;;2.23;1.00;;;;;;;;;;5009215;28;20182;-77
2023/03/09 00:19:12;;;;;;;2.20;1.10;;;;;;;;;;5008046;28;20237;-78
2023/03/09 00:21:39;;;;;;;0.93;0.90;;;;;;;;;;5007093;28;20226;-77
2023/03/09 00:24:06;;;;;;;1.47;1.00;;;;;;;;;;5008077;28;20214;-77
2023/03/09 00:26:32;;;;;;;0.80;0.80;;;;;;;;;;5000280;28;20183;-77
2023/03/09 00:28:57;;;;;;;0.90;0.90;;;;;;;;;;5003093;28;20187;-77
2023/03/09 00:31:23;;;;;;;1.17;1.07;;;;;;;;;;5020261;28;20190;-77
2023/03/09 00:33:48;;;;;;;1.20;1.10;;;;;;;;;;5008255;28;20187;-77
2023/03/09 00:36:14;;;;;;;1.40;1.17;;;;;;;;;;5009940;28;20175;-78
2023/03/09 00:38:39;;;;;;;0.80;0.80;;;;;;;;;;5001514;28;20213;-77
2023/03/09 00:41:04;;;;;;;1.83;0.90;;;;;;;;;;5003442;28;20192;-77
2023/03/09 00:43:30;;;;;;;0.77;0.77;;;;;;;;;;4997774;28;20175;-78
2023/03/09 00:45:55;;;;;;;1.03;0.93;;;;;;;;;;5001844;28;20183;-78
2023/03/09 00:48:20;;;;;;;1.40;0.87;;;;;;;;;;5008907;28;20248;-77
2023/03/09 00:50:45;;;;;;;0.90;0.60;;;;;;;;;;5008358;28;20203;-78
2023/03/09 00:53:11;;;;;;;0.70;0.70;;;;;;;;;;5003838;28;20191;-77
2023/03/09 00:55:36;;;;;;;1.00;0.90;;;;;;;;;;5009467;28;20178;-77
2023/03/09 00:58:01;;;;;;;1.27;0.60;;;;;;;;;;5006649;28;20300;-77
2023/03/09 01:00:26;;;;;;;0.73;0.70;;;;;;;;;;5009507;28;20204;-77
2023/03/09 01:02:53;;;;;;;0.60;0.60;;;;;;;;;;4996739;28;20177;-78
2023/03/09 01:05:19;;;;;;;0.77;0.70;;;;;;;;;;5003730;28;20204;-77
2023/03/09 01:07:44;;;;;;;2.60;0.90;;;;;;;;;;5002734;28;20271;-78
2023/03/09 01:10:10;;;;;;;1.50;1.00;;;;;;;;;;5019291;28;20175;-78
2023/03/09 01:12:35;;;;;;;1.70;0.90;;;;;;;;;;5007197;28;20194;-77
2023/03/09 01:15:01;;;;;;;0.70;0.70;;;;;;;;;;5023705;28;20194;-78
2023/03/09 01:17:26;;;;;;;3.03;0.80;;;;;;;;;;5002902;28;20208;-77
2023/03/09 01:19:51;;;;;;;0.90;0.90;;;;;;;;;;5000947;28;20221;-78
2023/03/09 01:22:17;;;;;;;1.90;0.97;;;;;;;;;;4998867;28;20185;-77
2023/03/09 01:24:42;;;;;;;1.63;1.13;;;;;;;;;;5000842;28;20176;-77
2023/03/09 01:27:07;;;;;;;2.77;1.00;;;;;;;;;;4999174;28;20274;-78
2023/03/09 01:29:33;;;;;;;1.63;0.90;;;;;;;;;;5000530;28;20203;-78
2023/03/09 01:31:58;;;;;;;2.30;1.23;;;;;;;;;;5004302;28;20194;-77
2023/03/09 01:34:24;;;;;;;1.03;0.73;;;;;;;;;;5003585;28;20179;-77
2023/03/09 01:36:49;;;;;;;1.30;0.87;;;;;;;;;;5002041;28;20188;-77
2023/03/09 01:39:14;;;;;;;1.10;0.70;;;;;;;;;;5001436;28;20212;-78
2023/03/09 01:41:40;;;;;;;0.70;0.63;;;;;;;;;;4998119;28;20193;-77
2023/03/09 01:44:05;;;;;;;0.90;0.63;;;;;;;;;;5004114;28;20187;-78
2023/03/09 01:46:35;;;;;;;0.60;0.60;;;;;;;;;;5018749;28;20169;-77
2023/03/09 01:49:04;;;;;;;1.33;0.63;;;;;;;;;;4999323;28;20239;-77
2023/03/09 01:51:39;;;;;;;1.13;0.60;;;;;;;;;;5018745;28;20225;-77
2023/03/09 01:54:07;;;;;;;0.40;0.40;;;;;;;;;;5002958;28;20182;-77
2023/03/09 01:56:33;;;;;;;0.60;0.60;;;;;;;;;;5008877;28;20218;-77
2023/03/09 01:58:59;;;;;;;0.60;0.60;;;;;;;;;;5003589;28;20230;-78
2023/03/09 02:01:25;;;;;;;0.30;0.30;;;;;;;;;;5008687;28;20212;-77
2023/03/09 02:03:53;;;;;;;0.67;0.50;;;;;;;;;;5005496;28;20179;-77
2023/03/09 02:06:19;;;;;;;0.93;0.67;;;;;;;;;;5005679;28;20180;-77
2023/03/09 02:08:50;;;;;;;0.70;0.70;;;;;;;;;;5002760;28;20195;-77
2023/03/09 02:11:16;;;;;;;1.63;0.60;;;;;;;;;;5010781;28;20205;-77
2023/03/09 02:13:43;;;;;;;0.93;0.87;;;;;;;;;;5002373;28;20192;-78
2023/03/09 02:16:08;;;;;;;0.53;0.53;;;;;;;;;;5012598;28;20190;-77
2023/03/09 02:18:34;;;;;;;1.77;0.60;;;;;;;;;;5029542;28;20318;-77
2023/03/09 02:20:59;;;;;;;0.77;0.60;;;;;;;;;;5033851;28;20189;-77
2023/03/09 02:23:43;;;;;;;0.50;0.50;;;;;;;;;;5032810;28;20176;-78
2023/03/09 02:26:14;;;;;;;0.37;0.37;;;;;;;;;;5024185;28;20183;-77
2023/03/09 02:28:40;;;;;;;0.57;0.57;;;;;;;;;;5031575;28;20184;-77
2023/03/09 02:31:06;;;;;;;0.73;0.57;;;;;;;;;;5043084;28;20174;-77
2023/03/09 02:33:31;;;;;;;0.60;0.33;;;;;;;;;;5032239;28;20179;-77
2023/03/09 02:35:57;;;;;;;0.57;0.57;;;;;;;;;;5031744;28;20413;-77
2023/03/09 02:38:23;;;;;;;0.50;0.50;;;;;;;;;;5027962;28;20209;-77
2023/03/09 02:40:49;;;;;;;0.40;0.40;;;;;;;;;;5019662;28;20265;-77
2023/03/09 02:43:16;;;;;;;0.53;0.53;;;;;;;;;;5026826;28;20180;-77
2023/03/09 02:45:41;;;;;;;0.50;0.50;;;;;;;;;;5029299;28;20202;-77
2023/03/09 02:48:07;;;;;;;1.00;0.67;;;;;;;;;;5031551;28;20274;-77
2023/03/09 02:50:32;;;;;;;0.83;0.60;;;;;;;;;;5059564;28;20233;-77
2023/03/09 02:52:57;;;;;;;0.77;0.50;;;;;;;;;;5027039;28;20203;-77
2023/03/09 02:55:22;;;;;;;1.33;0.70;;;;;;;;;;5023035;28;20241;-77
2023/03/09 02:57:47;;;;;;;0.50;0.50;;;;;;;;;;5027881;28;20187;-77
2023/03/09 03:00:13;;;;;;;0.60;0.60;;;;;;;;;;5048674;28;20178;-77
2023/03/09 03:02:39;;;;;;;0.60;0.57;;;;;;;;;;5047573;28;20183;-77
2023/03/09 03:05:04;;;;;;;0.40;0.40;;;;;;;;;;5026982;28;20183;-77
2023/03/09 03:07:30;;;;;;;0.40;0.40;;;;;;;;;;5031717;28;20178;-77
2023/03/09 03:09:55;;;;;;;0.60;0.60;;;;;;;;;;5024995;28;20185;-77
2023/03/09 03:12:21;;;;;;;0.67;0.63;;;;;;;;;;5006725;28;20360;-77
2023/03/09 03:14:46;;;;;;;0.77;0.70;;;;;;;;;;5027653;28;20190;-77
2023/03/09 03:17:11;;;;;;;0.57;0.57;;;;;;;;;;5019282;28;20195;-77
2023/03/09 03:19:37;;;;;;;0.50;0.50;;;;;;;;;;5005997;28;20231;-77
2023/03/09 03:22:02;;;;;;;2.77;1.03;;;;;;;;;;5007790;28;20203;-77
2023/03/09 03:24:28;;;;;;;1.10;1.00;;;;;;;;;;5020063;28;20176;-77
2023/03/09 03:26:53;;;;;;;1.20;0.77;;;;;;;;;;5023305;28;20254;-77
2023/03/09 03:29:18;;;;;;;0.90;0.90;;;;;;;;;;5005667;28;20183;-77
2023/03/09 03:31:46;;;;;;;2.57;1.13;;;;;;;;;;5013976;28;20252;-77
2023/03/09 03:34:12;;;;;;;2.33;1.47;;;;;;;;;;5006052;28;20179;-77
2023/03/09 03:36:37;;;;;;;4.07;1.53;;;;;;;;;;5005366;28;20180;-77
2023/03/09 03:39:05;;;;;;;2.83;1.33;;;;;;;;;;5013463;28;20213;-77
2023/03/09 03:41:30;;;;;;;1.83;1.30;;;;;;;;;;5024368;28;20278;-77
2023/03/09 03:43:55;;;;;;;2.13;1.30;;;;;;;;;;5005000;28;20264;-77
2023/03/09 03:46:20;;;;;;;3.83;1.50;;;;;;;;;;5026312;28;20176;-77
2023/03/09 03:48:46;;;;;;;3.77;1.50;;;;;;;;;;5006308;28;20188;-77
2023/03/09 03:51:11;;;;;;;2.53;1.30;;;;;;;;;;5003357;28;20188;-77
2023/03/09 03:53:36;;;;;;;3.87;1.73;;;;;;;;;;5012676;28;20179;-77
2023/03/09 03:56:02;;;;;;;3.30;1.97;;;;;;;;;;5009885;28;20187;-77
2023/03/09 03:58:28;;;;;;;3.93;1.40;;;;;;;;;;5010354;28;20195;-77
2023/03/09 04:00:53;;;;;;;6.17;2.20;;;;;;;;;;5002307;28;20218;-77
2023/03/09 04:03:18;;;;;;;5.00;1.63;;;;;;;;;;5009450;28;20176;-77
2023/03/09 04:05:43;;;;;;;3.57;2.13;;;;;;;;;;5015306;28;20229;-77
2023/03/09 04:08:09;;;;;;;5.93;2.57;;;;;;;;;;5003378;28;20189;-78
2023/03/09 04:10:37;;;;;;;6.20;2.20;;;;;;;;;;5007420;28;20178;-77
2023/03/09 04:13:02;;;;;;;5.63;2.13;;;;;;;;;;5004985;28;20216;-77
2023/03/09 04:15:31;;;;;;;5.13;2.60;;;;;;;;;;5005433;28;20188;-76
2023/03/09 04:17:56;;;;;;;4.37;2.47;;;;;;;;;;5008717;28;20183;-77
2023/03/09 04:20:21;;;;;;;5.37;2.77;;;;;;;;;;5006677;28;20225;-77
2023/03/09 04:22:47;;;;;;;4.10;2.60;;;;;;;;;;5004859;28;20210;-77
2023/03/09 04:25:13;;;;;;;5.17;2.63;;;;;;;;;;5000255;28;20247;-77
2023/03/09 04:27:38;;;;;;;5.67;2.90;;;;;;;;;;4998733;28;20180;-77
2023/03/09 04:30:03;;;;;;;10.13;3.40;;;;;;;;;;5009892;28;20206;-77
2023/03/09 04:32:29;;;;;;;8.17;3.47;;;;;;;;;;5001734;28;20184;-77
2023/03/09 04:34:54;;;;;;;4.97;3.20;;;;;;;;;;4999881;28;20180;-77
2023/03/09 04:37:22;;;;;;;6.53;2.73;;;;;;;;;;5005219;28;20186;-77
2023/03/09 04:39:47;;;;;;;4.97;2.03;;;;;;;;;;5021962;28;20205;-77
2023/03/09 04:42:13;;;;;;;6.73;2.33;;;;;;;;;;5006274;28;20188;-77
2023/03/09 04:44:38;;;;;;;4.60;2.63;;;;;;;;;;5002732;28;20261;-77
2023/03/09 04:47:03;;;;;;;6.47;2.50;;;;;;;;;;5009851;28;20181;-77
2023/03/09 04:49:29;;;;;;;7.93;2.43;;;;;;;;;;5000302;28;20243;-77
2023/03/09 04:51:54;;;;;;;8.33;3.17;;;;;;;;;;5009371;28;20209;-77
2023/03/09 04:54:20;;;;;;;5.37;2.47;;;;;;;;;;5009446;28;20183;-77
2023/03/09 04:56:45;;;;;;;3.93;1.87;;;;;;;;;;5006127;28;20260;-77
2023/03/09 04:59:10;;;;;;;7.50;2.80;;;;;;;;;;5009290;28;20213;-77
2023/03/09 05:01:35;;;;;;;7.77;2.77;;;;;;;;;;5000690;28;20187;-77
2023/03/09 05:04:01;;;;;;;6.40;3.13;;;;;;;;;;5003146;28;20181;-78
2023/03/09 05:06:26;;;;;;;6.73;2.47;;;;;;;;;;5009888;28;20182;-77
2023/03/09 05:08:51;;;;;;;4.17;2.53;;;;;;;;;;5009114;28;20189;-77
2023/03/09 05:11:17;;;;;;;3.07;1.97;;;;;;;;;;5006989;28;20305;-77
2023/03/09 05:13:42;;;;;;;8.80;2.57;;;;;;;;;;5006595;28;20348;-77
2023/03/09 05:16:07;;;;;;;9.63;3.07;;;;;;;;;;5008063;28;20194;-77
2023/03/09 05:18:34;;;;;;;5.90;2.60;;;;;;;;;;5015777;28;20230;-77
2023/03/09 05:20:59;;;;;;;7.03;2.83;;;;;;;;;;5026508;28;20236;-77
2023/03/09 05:23:24;;;;;;;6.27;2.43;;;;;;;;;;5025832;28;20177;-77
2023/03/09 05:25:57;;;;;;;3.57;2.37;;;;;;;;;;5021824;28;20201;-77
2023/03/09 05:28:24;;;;;;;4.97;2.63;;;;;;;;;;5026175;28;20178;-76
2023/03/09 05:30:50;;;;;;;5.73;3.27;;;;;;;;;;5023853;28;20259;-77
2023/03/09 05:33:15;;;;;;;5.83;2.47;;;;;;;;;;5015144;28;20208;-77
2023/03/09 05:35:40;;;;;;;9.07;2.53;;;;;;;;;;5031605;28;20192;-77
2023/03/09 05:38:06;;;;;;;5.90;2.80;;;;;;;;;;5024770;28;20211;-77
2023/03/09 05:40:34;;;;;;;4.10;2.30;;;;;;;;;;5015893;28;20178;-77
2023/03/09 05:43:00;;;;;;;6.57;2.47;;;;;;;;;;5022742;28;20189;-77
2023/03/09 05:45:25;;;;;;;5.03;2.43;;;;;;;;;;5030314;28;20177;-77
2023/03/09 05:47:51;;;;;;;7.60;3.23;;;;;;;;;;5020657;28;20181;-77
2023/03/09 05:50:16;;;;;;;6.17;2.20;;;;;;;;;;5019585;28;20189;-77
2023/03/09 05:52:41;;;;;;;4.57;2.87;;;;;;;;;;5023176;28;20272;-77
2023/03/09 05:55:07;;;;;;;5.20;2.00;;;;;;;;;;5043555;28;20189;-77
2023/03/09 05:57:32;;;;;;;5.07;2.00;;;;;;;;;;5020384;28;20174;-77
2023/03/09 05:59:57;;;;;;;2.90;1.83;;;;;;;;;;5044444;28;20482;-77
2023/03/09 06:02:23;;;;;;;6.53;2.47;;;;;;;;;;5021660;28;20175;-77
2023/03/09 06:04:49;;;;;;;6.50;2.27;;;;;;;;;;5037068;28;20167;-77
2023/03/09 06:07:14;;;;;;;6.47;3.57;;;;;;;;;;5043811;28;20176;-78
2023/03/09 06:09:39;;;;;;;7.47;2.40;;;;;;;;;;5026451;28;20213;-78
2023/03/09 06:12:04;;;;;;;6.00;1.90;;;;;;;;;;5015761;28;20217;-78
2023/03/09 06:14:30;;;;;;;7.93;2.53;;;;;;;;;;5039672;28;20185;-78
2023/03/09 06:16:55;;;;;;;7.00;2.70;;;;;;;;;;5047596;28;20272;-78
2023/03/09 06:19:20;;;;;;;4.60;2.57;;;;;;;;;;5013782;28;20324;-78
2023/03/09 06:21:46;;;;;;;5.83;2.70;;;;;;;;;;5002749;28;20186;-78
2023/03/09 06:24:11;;;;;;;6.57;2.10;;;;;;;;;;5005449;28;20179;-79
2023/03/09 06:26:36;;;;;;;6.63;2.20;;;;;;;;;;4996565;28;20179;-78
2023/03/09 06:29:01;;;;;;;3.80;2.03;;;;;;;;;;5003171;28;20190;-79
2023/03/09 06:31:27;;;;;;;8.97;2.43;;;;;;;;;;5004517;28;20187;-78
2023/03/09 06:33:52;;;;;;;7.73;2.50;;;;;;;;;;5002103;28;20179;-78
2023/03/09 06:36:18;;;;;;;7.40;2.80;;;;;;;;;;5004111;28;20197;-78
2023/03/09 06:38:43;;;;;;;10.53;3.27;;;;;;;;;;4997427;28;20202;-78
2023/03/09 06:41:08;;;;;;;6.80;2.10;;;;;;;;;;5006562;28;20184;-79
2023/03/09 06:43:34;;;;;;;8.93;2.80;;;;;;;;;;5004233;28;20277;-78
2023/03/09 06:45:59;;;;;;;6.33;2.60;;;;;;;;;;5016907;28;20189;-78
2023/03/09 06:48:25;;;;;;;6.93;2.17;;;;;;;;;;4998247;28;20189;-78
2023/03/09 06:50:50;;;;;;;8.93;2.37;;;;;;;;;;5002226;28;20183;-78
2023/03/09 06:53:15;;;;;;;5.00;1.93;;;;;;;;;;5009528;28;20187;-78
2023/03/09 06:55:41;;;;;;;6.50;2.10;;;;;;;;;;5024155;28;20251;-78
2023/03/09 06:58:06;;;;;;;4.43;2.50;;;;;;;;;;5004119;28;20193;-80
2023/03/09 07:00:31;;;;;;;5.80;2.40;;;;;;;;;;4999136;28;20190;-80
2023/03/09 07:02:57;;;;;;;8.93;2.33;;;;;;;;;;5004245;28;20210;-79
2023/03/09 07:05:23;;;;;;;9.03;2.40;;;;;;;;;;5009651;28;20229;-80
2023/03/09 07:07:48;;;;;;;9.13;3.10;;;;;;;;;;5005451;28;20181;-79
2023/03/09 07:10:13;;;;;;;6.10;3.37;;;;;;;;;;5003698;28;20224;-80
2023/03/09 07:12:39;;;;;;;6.90;2.37;;;;;;;;;;5014308;28;20206;-79
2023/03/09 07:15:05;;;;;;;6.87;2.47;;;;;;;;;;5015526;28;20187;-80
2023/03/09 07:17:30;;;;;;;5.07;2.03;;;;;;;;;;5000525;28;20223;-79
2023/03/09 07:19:56;;;;;;;5.47;1.73;;;;;;;;;;5016174;28;20223;-80
2023/03/09 07:22:22;;;;;;;6.90;1.90;;;;;;;;;;5012779;28;20187;-79
2023/03/09 07:24:47;;;;;;;1.67;1.53;;;;;;;;;;5013586;28;20174;-80
2023/03/09 07:27:12;;;;;;;6.00;2.40;;;;;;;;;;5005292;28;20179;-80
2023/03/09 07:29:40;;;;;;;4.27;1.80;;;;;;;;;;5010509;28;20187;-80
2023/03/09 07:32:05;;;;;;;2.97;1.73;;;;;;;;;;5009624;28;20190;-80
2023/03/09 07:34:31;;;;;;;3.77;1.67;;;;;;;;;;5003127;28;20175;-79
2023/03/09 07:36:57;;;;;;;6.50;2.13;;;;;;;;;;5007077;28;20178;-80
2023/03/09 07:39:22;;;;;;;4.30;1.93;;;;;;;;;;5009360;28;20201;-80
2023/03/09 07:41:47;;;;;;;2.73;1.47;;;;;;;;;;5005269;28;20209;-80
2023/03/09 07:44:13;;;;;;;4.07;2.13;;;;;;;;;;4998359;28;20179;-79
2023/03/09 07:46:38;;;;;;;7.27;2.20;;;;;;;;;;4996527;28;20259;-80
2023/03/09 07:49:04;;;;;;;2.97;1.80;;;;;;;;;;5004510;28;20184;-79
2023/03/09 07:51:29;;;;;;;6.80;2.37;;;;;;;;;;5005398;28;20286;-80
2023/03/09 07:53:55;;;;;;;5.27;2.57;;;;;;;;;;5010086;28;20189;-80
2023/03/09 07:56:20;;;;;;;5.43;2.20;;;;;;;;;;5012493;28;20179;-79
2023/03/09 07:58:46;;;;;;;4.50;2.60;;;;;;;;;;5009479;28;20237;-80
2023/03/09 08:01:16;;;;;;;3.23;1.80;;;;;;;;;;4997837;28;20205;-80
2023/03/09 08:03:42;;;;;;;5.17;1.97;;;;;;;;;;5001253;28;20639;-80
2023/03/09 08:06:07;;;;;;;7.47;2.10;;;;;;;;;;5004732;28;20184;-80
2023/03/09 08:08:32;;;;;;;4.63;1.97;;;;;;;;;;5000178;28;20186;-81
2023/03/09 08:10:58;;;;;;;3.60;1.67;;;;;;;;;;5003478;28;20299;-80
2023/03/09 08:13:23;;;;;;;3.43;2.00;;;;;;;;;;5007486;28;20198;-80
2023/03/09 08:15:49;;;;;;;7.37;2.50;;;;;;;;;;5005886;28;20180;-80
2023/03/09 08:18:16;;;;;;;3.40;2.13;;;;;;;;;;5003590;28;20199;-80
2023/03/09 08:20:42;;;;;;;6.63;2.17;;;;;;;;;;5034491;28;20267;-80
2023/03/09 08:23:07;;;;;;;3.33;1.90;;;;;;;;;;5022958;28;20178;-80
2023/03/09 08:25:33;;;;;;;5.00;2.03;;;;;;;;;;5018253;28;20202;-80
2023/03/09 08:27:58;;;;;;;4.03;1.83;;;;;;;;;;5029479;28;20179;-80
2023/03/09 08:30:24;;;;;;;3.10;2.60;;;;;;;;;;5026195;28;20181;-80
2023/03/09 08:32:50;;;;;;;6.53;2.83;;;;;;;;;;5025751;28;20174;-80
2023/03/09 08:35:16;;;;;;;4.63;1.87;;;;;;;;;;5017987;28;20176;-80
2023/03/09 08:37:41;;;;;;;4.33;2.83;;;;;;;;;;5021830;28;20167;-80
2023/03/09 08:40:07;;;;;;;2.77;1.70;;;;;;;;;;5033790;28;20203;-80
2023/03/09 08:42:33;;;;;;;2.20;1.53;;;;;;;;;;5021630;28;20184;-80
2023/03/09 08:44:59;;;;;;;4.17;1.30;;;;;;;;;;5030548;28;20185;-80
2023/03/09 08:47:24;;;;;;;3.20;1.30;;;;;;;;;;5029569;28;20174;-80
2023/03/09 08:49:49;;;;;;;8.00;1.50;;;;;;;;;;5029313;28;20195;-79
2023/03/09 08:52:15;;;;;;;6.73;1.73;;;;;;;;;;5021895;28;20299;-80
2023/03/09 08:54:40;;;;;;;5.00;1.47;;;;;;;;;;5019815;28;20179;-80
2023/03/09 08:57:06;;;;;;;6.70;1.33;;;;;;;;;;5050716;28;20195;-80
2023/03/09 08:59:31;;;;;;;2.27;1.20;;;;;;;;;;5037832;28;20208;-81
2023/03/09 09:01:57;;;;;;;2.07;1.03;;;;;;;;;;5024376;28;20248;-80
2023/03/09 09:04:24;;;;;;;1.83;1.20;;;;;;;;;;5039936;28;20183;-80
2023/03/09 09:06:49;;;;;;;7.07;3.43;;;;;;;;;;5020362;28;20214;-80
2023/03/09 09:09:14;;;;;;;4.20;1.73;;;;;;;;;;5022577;28;20189;-80
2023/03/09 09:11:39;;;;;;;1.80;1.20;;;;;;;;;;5042925;28;20201;-80
2023/03/09 09:14:05;;;;;;;4.13;1.60;;;;;;;;;;5050796;28;20186;-80
2023/03/09 09:16:30;;;;;;;4.17;1.57;;;;;;;;;;5023913;28;20182;-80
2023/03/09 09:18:56;;;;;;;2.93;2.13;;;;;;;;;;5016991;28;20223;-80
2023/03/09 09:21:21;;;;;;;2.47;1.50;;;;;;;;;;5000020;28;20179;-80
2023/03/09 09:23:47;;;;;;;5.03;1.40;;;;;;;;;;5009026;28;20335;-80
2023/03/09 09:26:12;;;;;;;3.80;1.40;;;;;;;;;;5021499;28;20182;-80
2023/03/09 09:28:38;;;;;;;6.17;1.33;;;;;;;;;;5005267;28;20186;-80
2023/03/09 09:31:03;;;;;;;5.23;1.70;;;;;;;;;;5002651;28;20182;-80
2023/03/09 09:33:30;;;;;;;5.10;1.87;;;;;;;;;;5005993;28;20180;-80
2023/03/09 09:36:07;;;;;;;2.87;1.67;;;;;;;;;;5005075;28;20189;-80
2023/03/09 09:38:35;;;;;;;4.70;1.67;;;;;;;;;;5015602;28;20204;-80
2023/03/09 09:41:19;;;;;;;3.53;1.30;;;;;;;;;;5004848;28;21180;-80
2023/03/09 09:43:46;;;;;;;4.90;1.43;;;;;;;;;;4996654;28;20279;-80
2023/03/09 09:46:13;;;;;;;3.57;1.80;;;;;;;;;;5003814;28;20175;-80
2023/03/09 09:48:40;;;;;;;3.40;1.67;;;;;;;;;;4996402;28;20288;-80
2023/03/09 09:51:05;;;;;;;3.30;1.70;;;;;;;;;;5004005;28;20309;-80
2023/03/09 09:53:37;;;;;;;3.63;1.30;;;;;;;;;;5007884;28;20274;-80
2023/03/09 09:56:03;;;;;;;4.73;1.90;;;;;;;;;;5019076;28;20317;-80
2023/03/09 09:58:32;;;;;;;3.67;1.57;;;;;;;;;;4995040;28;20273;-80
2023/03/09 10:01:00;;;;;;;3.50;1.50;;;;;;;;;;5010802;28;20179;-80
2023/03/09 10:03:37;;;;;;;3.63;1.60;;;;;;;;;;4998931;28;20336;-80
2023/03/09 10:06:08;;;;;;;2.97;1.27;;;;;;;;;;5007188;28;20179;-80
2023/03/09 10:08:36;;;;;;;9.10;1.40;;;;;;;;;;5020326;28;20172;-80
2023/03/09 10:11:17;;;;;;;7.10;1.77;;;;;;;;;;5003383;28;20185;-80
2023/03/09 10:13:45;;;;;;;1.77;1.20;;;;;;;;;;5022568;28;20175;-80
2023/03/09 10:16:18;;;;;;;1.33;1.07;;;;;;;;;;5014321;28;20192;-80
2023/03/09 10:18:46;;;;;;;1.93;1.40;;;;;;;;;;4998124;28;20272;-81
2023/03/09 10:21:23;;;;;;;2.93;1.50;;;;;;;;;;4997406;28;20167;-81
2023/03/09 10:23:50;;;;;;;3.70;1.50;;;;;;;;;;4995348;28;20268;-81
2023/03/09 10:26:38;;;;;;;2.97;1.17;;;;;;;;;;5011096;28;20179;-80
2023/03/09 10:29:08;;;;;;;3.33;1.27;;;;;;;;;;5008069;28;20273;-80
2023/03/09 10:31:40;;;;;;;4.03;1.20;;;;;;;;;;4999017;28;20282;-80
2023/03/09 10:34:05;;;;;;;2.10;1.10;;;;;;;;;;5007271;28;20187;-80
2023/03/09 10:36:31;;;;;;;6.20;1.57;;;;;;;;;;5009154;28;20219;-80
2023/03/09 10:39:02;;;;;;;3.73;1.90;;;;;;;;;;5006670;28;20226;-80
2023/03/09 10:41:28;;;;;;;6.07;2.10;;;;;;;;;;5013974;28;20183;-80
2023/03/09 10:43:54;;;;;;;2.23;1.33;;;;;;;;;;5009925;28;20183;-80
2023/03/09 10:46:21;;;;;;;3.73;1.60;;;;;;;;;;5008695;28;20258;-80
2023/03/09 10:48:47;;;;;;;2.93;1.70;;;;;;;;;;5003326;28;20215;-80
2023/03/09 10:51:18;;;;;;;2.27;1.60;;;;;;;;;;5009008;28;20233;-80
2023/03/09 10:53:46;;;;;;;8.20;3.67;;;;;;;;;;5011956;28;20249;-81
2023/03/09 10:56:11;;;;;;;13.63;7.67;;;;;;;;;;5019044;28;20180;-81
2023/03/09 10:58:37;;;;;;;7.53;4.83;;;;;;;;;;5008487;28;20207;-80
2023/03/09 11:01:05;;;;;;;7.03;2.93;;;;;;;;;;5012592;28;20246;-80
2023/03/09 11:03:37;;;;;;;5.93;3.90;;;;;;;;;;5004597;28;20173;-80
2023/03/09 11:06:12;;;;;;;5.23;2.97;;;;;;;;;;5008823;28;20262;-80
2023/03/09 11:08:37;;;;;;;5.30;2.30;;;;;;;;;;5017808;28;20275;-81
2023/03/09 11:11:04;;;;;;;3.23;1.63;;;;;;;;;;4999356;28;20211;-81
2023/03/09 11:13:30;;;;;;;13.53;9.00;;;;;;;;;;5010702;28;20192;-81
2023/03/09 11:16:06;;;;;;;15.03;8.90;;;;;;;;;;5014222;28;20197;-80
2023/03/09 11:18:32;;;;;;;5.20;2.50;;;;;;;;;;5011785;28;20239;-81
2023/03/09 11:20:57;;;;;;;5.10;2.17;;;;;;;;;;5004397;28;20187;-80
2023/03/09 11:23:22;;;;;;;4.17;3.23;;;;;;;;;;5029968;28;20198;-81
2023/03/09 11:26:03;;;;;;;4.53;2.83;;;;;;;;;;5007802;28;20187;-80
2023/03/09 11:28:37;;;;;;;14.17;6.90;;;;;;;;;;5002350;28;20224;-80
2023/03/09 11:31:03;;;;;;;3.27;1.97;;;;;;;;;;4996614;28;20189;-81
2023/03/09 11:33:29;;;;;;;7.03;4.50;;;;;;;;;;5000951;28;20305;-80
2023/03/09 11:35:55;;;;;;;6.97;4.97;;;;;;;;;;5002712;28;20190;-80
2023/03/09 11:38:21;;;;;;;5.87;4.07;;;;;;;;;;5023406;28;20179;-80
2023/03/09 11:40:47;;;;;;;5.67;3.00;;;;;;;;;;5006823;28;20183;-80
2023/03/09 11:43:21;;;;;;;3.87;2.50;;;;;;;;;;5027694;28;20182;-81
2023/03/09 11:45:47;;;;;;;4.00;2.10;;;;;;;;;;5005056;28;20215;-80
2023/03/09 11:48:12;;;;;;;3.33;1.20;;;;;;;;;;4999775;28;20423;-80
2023/03/09 11:50:43;;;;;;;2.67;1.53;;;;;;;;;;5005659;28;20182;-80
2023/03/09 11:53:14;;;;;;;4.10;3.10;;;;;;;;;;5000134;28;20192;-80
2023/03/09 11:55:45;;;;;;;6.53;2.67;;;;;;;;;;5030288;28;20225;-81
2023/03/09 11:58:16;;;;;;;3.47;2.23;;;;;;;;;;4998524;28;20284;-80
2023/03/09 12:00:45;;;;;;;3.47;1.43;;;;;;;;;;5000753;28;20239;-80
2023/03/09 12:03:11;;;;;;;2.10;1.40;;;;;;;;;;5005604;28;20180;-81
2023/03/09 12:05:42;;;;;;;3.63;2.30;;;;;;;;;;4998057;28;20187;-80
2023/03/09 12:08:08;;;;;;;3.13;1.60;;;;;;;;;;5000265;28;20305;-80
2023/03/09 12:10:36;;;;;;;4.00;2.33;;;;;;;;;;5011186;28;20269;-81
2023/03/09 12:13:13;;;;;;;4.67;1.60;;;;;;;;;;5003309;28;20214;-80
2023/03/09 12:15:51;;;;;;;3.60;1.93;;;;;;;;;;5021549;28;20328;-81
2023/03/09 12:18:21;;;;;;;3.03;2.07;;;;;;;;;;5004834;28;20215;-81
2023/03/09 12:21:07;;;;;;;3.40;1.97;;;;;;;;;;5021803;28;20180;-81
2023/03/09 12:23:32;;;;;;;3.23;1.70;;;;;;;;;;5025734;28;20211;-81
2023/03/09 12:25:58;;;;;;;5.83;1.87;;;;;;;;;;5023087;28;20179;-81
2023/03/09 12:28:23;;;;;;;3.87;2.07;;;;;;;;;;5021314;28;20185;-81
2023/03/09 12:30:53;;;;;;;2.10;1.90;;;;;;;;;;5022319;28;20190;-81
2023/03/09 12:33:37;;;;;;;4.50;2.27;;;;;;;;;;5021364;28;20231;-81
2023/03/09 12:36:03;;;;;;;3.57;1.73;;;;;;;;;;5021393;28;20234;-81
2023/03/09 12:38:28;;;;;;;2.40;1.53;;;;;;;;;;5028192;28;20199;-81
2023/03/09 12:40:57;;;;;;;5.07;1.60;;;;;;;;;;5045799;28;20292;-81
2023/03/09 12:43:22;;;;;;;12.93;2.97;;;;;;;;;;5024900;28;20263;-81
2023/03/09 12:45:48;;;;;;;3.67;1.63;;;;;;;;;;5036459;28;20245;-81
2023/03/09 12:48:23;;;;;;;4.20;2.27;;;;;;;;;;5023992;28;20188;-81
2023/03/09 12:50:48;;;;;;;6.33;1.90;;;;;;;;;;5031195;28;20230;-81
2023/03/09 12:53:18;;;;;;;4.13;1.70;;;;;;;;;;5027888;28;20244;-81
2023/03/09 12:55:48;;;;;;;3.40;1.70;;;;;;;;;;5023817;28;20184;-81
2023/03/09 13:01:28;;;;;;;4.37;1.50;;;;;;;;;;5052767;28;20186;-81
2023/03/09 13:04:09;;;;;;;7.33;1.80;;;;;;;;;;5034175;28;20221;-81
2023/03/09 13:06:36;;;;;;;2.53;1.67;;;;;;;;;;5015274;28;20181;-83
2023/03/09 13:09:03;;;;;;;4.53;1.40;;;;;;;;;;5022376;28;20177;-82
2023/03/09 13:11:39;;;;;;;3.33;1.53;;;;;;;;;;5028129;28;20213;-82
2023/03/09 13:14:18;;;;;;;5.70;1.43;;;;;;;;;;5038162;28;20287;-82
2023/03/09 13:16:43;;;;;;;4.03;1.60;;;;;;;;;;5018388;28;20193;-82
2023/03/09 13:19:17;;;;;;;2.70;1.40;;;;;;;;;;5016331;28;20238;-82
2023/03/09 13:22:00;;;;;;;2.90;1.40;;;;;;;;;;5004533;28;20191;-82
2023/03/09 13:24:40;;;;;;;5.40;1.83;;;;;;;;;;5006856;28;20216;-82
2023/03/09 13:27:11;;;;;;;2.80;1.70;;;;;;;;;;5026894;28;20188;-81
2023/03/09 13:29:45;;;;;;;3.33;1.77;;;;;;;;;;5004634;28;20260;-81
2023/03/09 13:32:30;;;;;;;3.17;1.40;;;;;;;;;;5001855;28;20198;-81
2023/03/09 13:34:57;;;;;;;2.47;1.37;;;;;;;;;;5021576;28;20228;-82
2023/03/09 13:37:24;;;;;;;3.37;1.43;;;;;;;;;;5001031;28;20188;-82
2023/03/09 13:39:57;;;;;;;1.70;1.60;;;;;;;;;;5006171;28;20215;-82
2023/03/09 13:42:22;;;;;;;6.20;1.50;;;;;;;;;;5011622;28;20186;-82
2023/03/09 13:44:48;;;;;;;4.93;1.90;;;;;;;;;;5009451;28;20188;-82
2023/03/09 13:47:22;;;;;;;8.63;2.10;;;;;;;;;;5003467;28;20177;-82
2023/03/09 13:49:47;;;;;;;3.80;1.83;;;;;;;;;;5022582;28;20212;-82
2023/03/09 13:52:16;;;;;;;6.63;3.40;;;;;;;;;;4998078;28;20216;-82
2023/03/09 13:54:47;;;;;;;3.03;1.70;;;;;;;;;;5003221;28;20189;-82
2023/03/09 13:57:21;;;;;;;3.87;1.67;;;;;;;;;;4999290;28;20197;-82
2023/03/09 14:00:05;;;;;;;4.60;1.50;;;;;;;;;;5003633;28;20273;-82
2023/03/09 14:02:32;;;;;;;1.63;1.40;;;;;;;;;;5025737;28;20182;-82
2023/03/09 14:04:58;;;;;;;3.27;1.60;;;;;;;;;;5005612;28;20204;-82
2023/03/09 14:07:24;;;;;;;1.77;1.40;;;;;;;;;;5009140;28;20174;-82
2023/03/09 14:09:51;;;;;;;4.97;2.30;;;;;;;;;;5003754;28;20229;-82
2023/03/09 14:12:21;;;;;;;3.83;2.13;;;;;;;;;;5010289;28;20233;-82
2023/03/09 14:14:46;;;;;;;3.17;2.10;;;;;;;;;;5001579;28;20183;-82
2023/03/09 14:17:17;;;;;;;4.27;2.50;;;;;;;;;;5000255;28;20261;-82
2023/03/09 14:19:42;;;;;;;6.00;2.97;;;;;;;;;;5005328;28;20282;-82
2023/03/09 14:22:16;;;;;;;4.00;2.00;;;;;;;;;;5007004;28;20186;-82
2023/03/09 14:24:41;;;;;;;2.50;1.10;;;;;;;;;;4997176;28;20177;-82
2023/03/09 14:27:11;;;;;;;3.87;1.37;;;;;;;;;;4998603;28;20183;-82
2023/03/09 14:29:36;;;;;;;4.57;1.63;;;;;;;;;;5021161;28;20182;-82
2023/03/09 14:32:22;;;;;;;5.00;1.70;;;;;;;;;;5001441;28;20192;-82
2023/03/09 14:34:47;;;;;;;2.20;1.23;;;;;;;;;;4997153;28;20183;-85
2023/03/09 14:37:17;;;;;;;3.73;1.83;;;;;;;;;;4997870;28;20189;-83
2023/03/09 14:39:42;;;;;;;3.37;1.40;;;;;;;;;;5003771;28;20210;-83
2023/03/09 14:42:11;;;;;;;3.93;1.80;;;;;;;;;;5006013;28;20183;-83
2023/03/09 14:44:40;;;;;;;4.00;2.90;;;;;;;;;;5003385;28;20182;-83
2023/03/09 14:47:16;;;;;;;2.00;1.50;;;;;;;;;;5003235;28;20197;-83